Time;durP1;ratioP1;P1;durP2;ratioP2;P2;SDS_P1;SDS_P2;PMS_P1;PMS_P2;Temp;Humidity;BMP_temperature;BMP_pressure;BME280_temperature;BME280_humidity;BME280_pressure;Samples;Min_cycle;Max_cycle;Signal;HPM_P1;HPM_P2
2023/12/14 00:00:51;;;;;;;38.22;22.42;;;;;;;30.90;63.53;101067.28;4954672;28;66925;-37
2023/12/14 00:03:21;;;;;;;38.58;24.25;;;;;;;30.78;66.44;101060.81;4965341;28;69462;-37
2023/12/14 00:05:51;;;;;;;41.67;23.50;;;;;;;30.91;64.89;101082.47;4968159;28;66058;-37
2023/12/14 00:08:21;;;;;;;42.58;23.20;;;;;;;30.85;68.91;101080.63;4967450;28;70793;-38
2023/12/14 00:10:51;;;;;;;54.78;27.27;;;;;;;30.84;66.85;101093.34;4954349;28;66563;-38
2023/12/14 00:13:21;;;;;;;50.97;28.55;;;;;;;30.80;67.88;101102.94;4969731;28;68473;-38
2023/12/14 00:15:51;;;;;;;42.63;25.23;;;;;;;30.81;64.86;101098.34;4961982;28;65458;-37
2023/12/14 00:18:22;;;;;;;50.33;26.48;;;;;;;30.41;68.25;101055.97;4954359;28;69190;-38
2023/12/14 00:20:53;;;;;;;42.58;24.65;;;;;;;30.79;67.10;101105.84;4957454;28;66361;-38
2023/12/14 00:23:24;;;;;;;41.65;23.23;;;;;;;30.89;65.60;101117.06;4961475;28;70917;-38
2023/12/14 00:25:54;;;;;;;43.83;24.25;;;;;;;30.81;68.18;101111.88;4947419;28;66129;-38
2023/12/14 00:28:25;;;;;;;50.30;23.52;;;;;;;30.87;67.00;101132.69;4956543;28;70104;-38
2023/12/14 00:30:59;;;;;;;38.58;23.40;;;;;;;30.75;68.81;101115.41;4953786;28;66425;-38
2023/12/14 00:33:28;;;;;;;40.00;24.00;;;;;;;30.87;70.41;101135.38;4980406;28;70771;-37
2023/12/14 00:35:59;;;;;;;39.08;24.58;;;;;;;30.82;68.92;101122.50;4988273;28;67310;-38
2023/12/14 00:38:29;;;;;;;34.97;22.88;;;;;;;30.91;70.31;101144.75;4981176;28;69310;-37
2023/12/14 00:40:59;;;;;;;39.55;24.33;;;;;;;30.84;68.27;101117.72;4990614;28;66968;-36
2023/12/14 00:43:29;;;;;;;40.90;22.70;;;;;;;30.91;71.71;101142.06;4958455;28;70124;-37
2023/12/14 00:45:59;;;;;;;38.00;22.27;;;;;;;30.94;68.69;101136.22;4974507;28;67026;-37
2023/12/14 00:48:29;;;;;;;35.90;23.17;;;;;;;30.92;71.32;101151.84;4959408;28;69603;-37
2023/12/14 00:50:59;;;;;;;34.75;22.25;;;;;;;31.01;68.38;101147.88;4980809;28;66059;-38
2023/12/14 00:53:29;;;;;;;36.97;22.83;;;;;;;31.01;69.82;101160.56;4951615;28;70997;-37
2023/12/14 00:56:00;;;;;;;37.15;21.92;;;;;;;30.76;68.43;101111.66;4932573;28;66386;-38
2023/12/14 00:58:30;;;;;;;35.33;22.08;;;;;;;31.01;69.38;101161.41;4966756;28;70525;-35
2023/12/14 01:01:00;;;;;;;34.50;21.52;;;;;;;31.03;69.55;101169.31;4948188;28;65670;-37
2023/12/14 01:03:30;;;;;;;37.78;20.70;;;;;;;30.84;69.88;101152.94;4967142;28;70528;-37
2023/12/14 01:06:00;;;;;;;25.63;18.95;;;;;;;30.97;69.77;101168.28;4965648;28;66514;-37
2023/12/14 01:08:30;;;;;;;32.25;19.05;;;;;;;30.99;68.25;101166.19;4937443;28;70363;-37
2023/12/14 01:11:00;;;;;;;31.23;19.98;;;;;;;31.02;69.52;101186.63;4954194;28;66183;-38
2023/12/14 01:13:30;;;;;;;28.35;19.15;;;;;;;31.21;66.16;101184.88;4950664;28;69727;-39
2023/12/14 01:16:00;;;;;;;20.38;16.05;;;;;;;31.26;66.04;101193.16;4970418;28;66470;-40
2023/12/14 01:18:31;;;;;;;20.20;16.13;;;;;;;31.32;65.60;101184.19;4932230;28;70071;-39
2023/12/14 01:21:01;;;;;;;20.75;16.15;;;;;;;31.34;65.32;101184.78;4964129;28;66224;-39
2023/12/14 01:23:31;;;;;;;17.65;15.82;;;;;;;31.41;64.65;101192.94;4970967;28;69907;-39
2023/12/14 01:26:01;;;;;;;21.83;16.52;;;;;;;31.42;64.93;101192.69;4962185;28;66654;-39
2023/12/14 01:28:32;;;;;;;19.52;15.20;;;;;;;31.49;64.92;101198.94;4974969;28;70234;-39
2023/12/14 01:31:02;;;;;;;20.55;15.73;;;;;;;31.51;64.61;101201.41;4951188;28;66271;-39
2023/12/14 01:33:32;;;;;;;21.13;16.38;;;;;;;31.54;64.37;101201.84;4973969;28;70813;-39
2023/12/14 01:36:02;;;;;;;19.92;15.43;;;;;;;31.57;64.45;101200.56;4975799;28;66270;-39
2023/12/14 01:38:32;;;;;;;16.88;14.85;;;;;;;31.60;64.04;101200.13;4966737;28;70541;-39
2023/12/14 01:41:02;;;;;;;22.48;15.93;;;;;;;31.60;64.34;101200.97;4968717;28;66192;-39
2023/12/14 01:43:32;;;;;;;18.48;15.35;;;;;;;31.64;64.01;101201.34;4942855;28;70037;-39
2023/12/14 01:46:02;;;;;;;19.00;14.75;;;;;;;31.57;64.18;101198.69;4968342;28;65809;-39
2023/12/14 01:48:32;;;;;;;16.05;14.35;;;;;;;31.68;63.75;101213.44;4951377;28;69263;-39
2023/12/14 01:51:03;;;;;;;18.98;15.00;;;;;;;31.60;63.92;101195.53;4975660;28;66536;-39
2023/12/14 01:53:33;;;;;;;21.25;15.25;;;;;;;31.65;63.60;101200.31;4966263;28;68976;-39
2023/12/14 01:56:04;;;;;;;15.70;14.02;;;;;;;31.68;63.86;101201.72;4952680;28;65669;-39
2023/12/14 01:58:35;;;;;;;17.88;13.68;;;;;;;31.74;63.60;101206.31;4973361;28;69868;-39
2023/12/14 02:01:16;;;;;;;22.95;15.00;;;;;;;31.61;63.45;101205.31;4944079;28;66037;-44
2023/12/14 02:03:48;;;;;;;16.05;14.40;;;;;;;31.63;63.54;101188.84;4972923;28;69933;-38
2023/12/14 02:06:18;;;;;;;20.10;14.45;;;;;;;31.81;63.51;101212.50;4967109;28;66457;-39
2023/12/14 02:08:49;;;;;;;15.70;13.30;;;;;;;31.82;63.42;101217.72;4970849;28;70200;-39
2023/12/14 02:11:18;;;;;;;18.15;13.80;;;;;;;31.84;63.25;101222.91;4966892;28;66524;-38
2023/12/14 02:13:49;;;;;;;14.60;13.18;;;;;;;31.87;63.20;101216.22;4969086;28;69823;-39
2023/12/14 02:16:19;;;;;;;15.30;13.68;;;;;;;31.88;63.25;101213.31;4971022;28;65397;-39
2023/12/14 02:18:49;;;;;;;18.15;13.07;;;;;;;31.89;63.41;101223.09;4964292;28;69723;-38
2023/12/14 02:21:19;;;;;;;14.82;13.32;;;;;;;31.90;63.25;101216.63;4969329;28;66572;-39
2023/12/14 02:23:50;;;;;;;17.48;12.88;;;;;;;31.93;62.80;101218.09;4973663;28;69557;-39
2023/12/14 02:26:19;;;;;;;15.15;13.40;;;;;;;31.94;62.96;101212.44;4971112;28;65849;-40
2023/12/14 02:28:50;;;;;;;17.27;12.95;;;;;;;31.95;63.22;101218.69;4970215;28;70292;-39
2023/12/14 02:31:20;;;;;;;17.95;14.40;;;;;;;31.93;62.79;101199.94;4962646;28;66497;-39
2023/12/14 02:33:51;;;;;;;13.95;12.55;;;;;;;31.90;62.85;101199.50;4965389;28;69144;-39
2023/12/14 02:36:21;;;;;;;14.30;12.48;;;;;;;32.01;62.91;101209.69;4966187;28;65556;-39
2023/12/14 02:38:51;;;;;;;14.80;13.32;;;;;;;32.02;63.03;101203.22;4942948;28;70116;-39
2023/12/14 02:41:21;;;;;;;15.57;12.18;;;;;;;31.97;62.63;101189.47;4966172;28;66366;-39
2023/12/14 02:43:52;;;;;;;14.32;11.90;;;;;;;32.05;62.42;101203.59;4958248;28;69938;-39
2023/12/14 02:46:21;;;;;;;13.38;12.10;;;;;;;32.04;62.60;101198.41;4950279;28;66079;-39
2023/12/14 02:48:51;;;;;;;12.88;11.52;;;;;;;32.08;62.81;101207.75;4968021;28;70005;-38
2023/12/14 02:51:21;;;;;;;15.45;12.05;;;;;;;32.10;62.74;101204.84;4969660;28;65912;-38
2023/12/14 02:53:51;;;;;;;12.98;11.68;;;;;;;31.82;62.13;101151.78;4978365;28;69280;-38
2023/12/14 02:56:22;;;;;;;13.80;11.50;;;;;;;32.12;62.53;101205.41;4967031;28;65197;-38
2023/12/14 02:58:53;;;;;;;12.52;11.50;;;;;;;32.12;62.28;101197.28;4966133;28;69496;-39
2023/12/14 03:01:24;;;;;;;12.65;11.35;;;;;;;32.15;62.37;101202.25;4963446;28;66071;-39
2023/12/14 03:03:54;;;;;;;12.20;11.05;;;;;;;32.17;62.42;101195.56;4968193;28;69462;-39
2023/12/14 03:06:24;;;;;;;12.40;11.25;;;;;;;32.19;62.47;101198.91;4974528;28;66073;-40
2023/12/14 03:08:54;;;;;;;12.07;11.00;;;;;;;32.21;62.18;101201.41;4969516;28;68536;-39
2023/12/14 03:11:25;;;;;;;12.32;10.85;;;;;;;32.20;62.25;101186.16;4956545;28;65848;-39
2023/12/14 03:13:55;;;;;;;12.32;11.05;;;;;;;32.15;62.04;101177.84;4952657;28;69848;-40
2023/12/14 03:16:25;;;;;;;12.90;10.60;;;;;;;32.12;62.34;101170.13;4950625;28;65739;-39
2023/12/14 03:18:56;;;;;;;10.77;9.88;;;;;;;32.26;62.20;101177.09;4954147;28;70541;-39
2023/12/14 03:21:26;;;;;;;10.70;9.68;;;;;;;32.25;62.18;101181.72;4969189;28;66074;-40
2023/12/14 03:23:57;;;;;;;11.40;10.48;;;;;;;32.28;62.13;101175.00;4953902;28;70594;-40
2023/12/14 03:26:28;;;;;;;11.38;10.27;;;;;;;32.28;62.23;101169.56;4957944;28;66567;-39
2023/12/14 03:28:58;;;;;;;11.52;10.52;;;;;;;32.30;62.06;101162.06;4976012;28;70057;-39
2023/12/14 03:31:28;;;;;;;10.82;10.02;;;;;;;32.31;61.96;101158.28;4949857;28;66753;-38
2023/12/14 03:33:58;;;;;;;11.32;10.23;;;;;;;32.33;62.16;101160.78;4955808;28;69963;-39
2023/12/14 03:36:28;;;;;;;10.05;9.35;;;;;;;32.33;62.02;101161.59;4963163;28;66820;-40
2023/12/14 03:38:58;;;;;;;11.40;9.93;;;;;;;32.33;62.11;101153.47;4968172;28;69841;-39
2023/12/14 03:41:28;;;;;;;10.90;9.90;;;;;;;32.28;61.81;101142.44;4976768;28;65730;-39
2023/12/14 03:43:58;;;;;;;10.68;9.60;;;;;;;32.37;61.93;101154.66;4946014;28;70528;-40
2023/12/14 03:46:28;;;;;;;11.05;10.02;;;;;;;32.38;61.69;101148.19;4962430;28;66869;-40
2023/12/14 03:48:58;;;;;;;10.55;9.68;;;;;;;32.37;61.59;101140.25;4971657;28;70211;-39
2023/12/14 03:51:29;;;;;;;10.80;8.73;;;;;;;32.40;61.75;101151.53;4947667;28;65962;-39
2023/12/14 03:53:59;;;;;;;10.75;9.82;;;;;;;32.41;61.79;101149.63;4961580;28;70424;-39
2023/12/14 03:56:29;;;;;;;11.65;9.57;;;;;;;32.40;61.85;101140.66;4957465;28;65780;-39
2023/12/14 03:59:00;;;;;;;10.40;9.60;;;;;;;32.44;61.59;101138.31;4962039;28;69193;-39
2023/12/14 04:01:30;;;;;;;9.80;8.90;;;;;;;32.38;61.86;101120.22;4974579;28;65891;-39
2023/12/14 04:04:00;;;;;;;9.70;8.80;;;;;;;32.42;61.60;101122.25;4952128;28;69925;-39
2023/12/14 04:06:30;;;;;;;10.15;9.25;;;;;;;32.44;61.61;101113.88;4971985;28;66549;-39
2023/12/14 04:09:00;;;;;;;10.10;9.23;;;;;;;32.39;61.26;101098.25;4974866;28;69332;-39
2023/12/14 04:11:30;;;;;;;9.32;8.63;;;;;;;32.49;61.51;101101.31;4952515;28;66076;-39
2023/12/14 04:14:00;;;;;;;9.95;9.15;;;;;;;32.51;61.35;101100.25;4967235;28;69339;-39
2023/12/14 04:16:30;;;;;;;10.18;9.43;;;;;;;32.37;61.29;101064.25;4984696;28;66924;-38
2023/12/14 04:19:01;;;;;;;9.30;8.50;;;;;;;32.56;61.38;101089.53;4984380;28;70534;-39
2023/12/14 04:21:31;;;;;;;9.98;9.10;;;;;;;32.54;61.18;101091.66;4950420;28;65191;-39
2023/12/14 04:24:01;;;;;;;9.82;8.80;;;;;;;32.57;61.05;101081.19;4959641;28;69708;-39
2023/12/14 04:26:31;;;;;;;9.55;8.95;;;;;;;32.59;61.25;101070.06;4986340;28;65315;-40
2023/12/14 04:29:01;;;;;;;9.63;8.88;;;;;;;32.52;61.50;101066.63;4945144;28;69126;-39
2023/12/14 04:31:31;;;;;;;8.30;7.70;;;;;;;32.62;61.24;101078.59;4988049;28;66348;-39
2023/12/14 04:34:01;;;;;;;8.73;8.13;;;;;;;32.56;61.15;101057.78;4984198;28;70595;-39
2023/12/14 04:36:31;;;;;;;8.55;7.85;;;;;;;32.63;61.16;101057.72;4966749;28;65518;-39
2023/12/14 04:39:02;;;;;;;9.27;8.48;;;;;;;32.66;61.05;101062.69;4962812;28;69811;-39
2023/12/14 04:41:31;;;;;;;8.80;8.05;;;;;;;32.66;61.02;101051.81;4969695;28;66002;-40
2023/12/14 04:44:02;;;;;;;8.75;7.90;;;;;;;32.53;61.11;101013.97;4967811;28;70445;-39
2023/12/14 04:46:32;;;;;;;9.05;8.30;;;;;;;32.69;60.81;101046.75;4980201;28;65743;-39
2023/12/14 04:49:02;;;;;;;9.73;8.82;;;;;;;32.71;60.73;101044.66;4985837;28;70649;-39
2023/12/14 04:51:33;;;;;;;7.70;7.10;;;;;;;32.70;60.71;101036.72;4972274;28;65502;-39
2023/12/14 04:54:04;;;;;;;8.10;7.43;;;;;;;32.72;60.65;101030.00;4952321;28;70191;-39
2023/12/14 04:56:34;;;;;;;8.45;7.85;;;;;;;32.73;60.93;101025.38;4969151;28;65968;-38
2023/12/14 04:59:05;;;;;;;8.25;7.68;;;;;;;32.77;60.82;101023.88;4963345;28;70306;-40
2023/12/14 05:01:35;;;;;;;8.63;7.82;;;;;;;32.71;60.76;101003.91;4984948;28;66091;-39
2023/12/14 05:04:05;;;;;;;7.82;7.32;;;;;;;32.81;60.51;101022.34;4981480;28;70569;-38
2023/12/14 05:06:35;;;;;;;11.02;7.65;;;;;;;32.82;60.45;100998.72;4983185;28;66719;-39
2023/12/14 05:09:06;;;;;;;8.20;7.53;;;;;;;32.81;60.48;101008.75;4983443;28;70082;-39
2023/12/14 05:11:36;;;;;;;7.78;7.20;;;;;;;32.69;60.46;100986.19;4974196;28;65314;-39
2023/12/14 05:14:06;;;;;;;7.97;7.25;;;;;;;32.87;60.57;100999.69;4968204;28;69804;-39
2023/12/14 05:16:36;;;;;;;7.75;7.15;;;;;;;32.87;60.38;100990.72;4948082;28;65932;-39
2023/12/14 05:19:07;;;;;;;8.63;7.72;;;;;;;32.91;60.23;101000.06;4950093;28;70341;-39
2023/12/14 05:21:37;;;;;;;7.20;6.70;;;;;;;32.92;60.36;100986.25;4970118;28;66181;-39
2023/12/14 05:24:07;;;;;;;7.93;6.93;;;;;;;32.94;60.12;100983.31;4973472;28;70459;-40
2023/12/14 05:26:37;;;;;;;8.18;7.10;;;;;;;32.96;60.12;100977.63;4969254;28;66581;-39
2023/12/14 05:29:07;;;;;;;7.60;6.90;;;;;;;32.99;60.20;100974.44;4946794;28;70030;-39
2023/12/14 05:31:37;;;;;;;7.43;6.75;;;;;;;32.97;59.84;100973.88;4974987;28;66321;-39
2023/12/14 05:34:08;;;;;;;8.18;6.55;;;;;;;33.02;59.96;100968.59;4969172;28;70725;-38
2023/12/14 05:36:37;;;;;;;8.00;7.13;;;;;;;32.92;60.25;100958.25;4965357;28;67130;-39
2023/12/14 05:39:08;;;;;;;7.10;6.55;;;;;;;32.97;60.18;100954.84;4967084;28;69671;-39
2023/12/14 05:41:42;;;;;;;6.90;6.20;;;;;;;33.04;59.78;100958.31;4959106;28;66370;-39
2023/12/14 05:44:13;;;;;;;6.72;6.32;;;;;;;33.07;59.82;100957.81;4950867;28;70527;-39
2023/12/14 05:46:42;;;;;;;7.57;6.28;;;;;;;32.94;59.76;100940.66;4967200;28;66372;-39
2023/12/14 05:49:12;;;;;;;6.80;6.22;;;;;;;33.10;60.00;100955.50;4967125;28;69465;-40
2023/12/14 05:51:43;;;;;;;7.15;6.55;;;;;;;33.12;59.83;100941.66;4944840;28;67342;-39
2023/12/14 05:54:12;;;;;;;7.03;6.47;;;;;;;33.14;59.82;100936.81;4962056;28;70892;-39
2023/12/14 05:56:43;;;;;;;6.68;6.03;;;;;;;33.14;59.79;100939.53;4950376;28;66282;-39
2023/12/14 05:59:14;;;;;;;6.60;6.00;;;;;;;33.19;59.49;100930.69;4951338;28;70524;-40
2023/12/14 06:01:44;;;;;;;7.00;6.40;;;;;;;33.20;59.65;100924.19;4966607;28;66156;-40
2023/12/14 06:04:14;;;;;;;7.25;5.95;;;;;;;33.22;59.58;100932.94;4963091;28;70756;-39
2023/12/14 06:06:44;;;;;;;7.97;6.63;;;;;;;33.20;59.60;100921.47;4948338;28;66821;-40
2023/12/14 06:09:14;;;;;;;7.03;6.40;;;;;;;33.23;59.52;100921.81;4968649;28;69601;-38
2023/12/14 06:11:44;;;;;;;5.75;5.35;;;;;;;33.26;59.34;100921.34;4967484;28;66462;-40
2023/12/14 06:14:14;;;;;;;6.90;6.50;;;;;;;33.28;59.54;100905.63;4968628;28;70091;-40
2023/12/14 06:16:44;;;;;;;6.60;6.10;;;;;;;33.29;59.26;100906.44;4952954;28;66440;-40
2023/12/14 06:19:14;;;;;;;5.75;5.28;;;;;;;33.32;59.29;100897.81;4972013;28;70230;-40
2023/12/14 06:21:45;;;;;;;5.78;5.38;;;;;;;33.33;59.11;100896.78;4945467;28;65917;-39
2023/12/14 06:24:15;;;;;;;7.63;5.35;;;;;;;33.30;59.20;100886.38;4965649;28;70738;-39
2023/12/14 06:26:45;;;;;;;5.50;5.07;;;;;;;33.37;58.96;100890.59;4967755;28;66237;-39
2023/12/14 06:29:15;;;;;;;6.45;5.95;;;;;;;33.39;58.97;100884.94;4977929;28;69755;-40
2023/12/14 06:31:46;;;;;;;6.20;5.75;;;;;;;33.43;58.87;100882.56;4964300;28;66277;-39
2023/12/14 06:34:17;;;;;;;5.72;5.22;;;;;;;33.41;58.97;100882.00;4964995;28;70474;-39
2023/12/14 06:36:47;;;;;;;5.47;5.10;;;;;;;33.42;58.72;100886.34;4970400;28;67010;-39
2023/12/14 06:39:17;;;;;;;5.88;5.38;;;;;;;33.47;59.02;100878.31;4963564;28;71388;-39
2023/12/14 06:41:48;;;;;;;5.47;4.97;;;;;;;33.47;58.60;100878.31;4967366;28;66728;-39
2023/12/14 06:44:18;;;;;;;5.78;5.28;;;;;;;33.44;58.89;100862.47;4968270;28;70929;-39
2023/12/14 06:46:49;;;;;;;5.28;4.97;;;;;;;33.49;58.56;100871.56;4951128;28;66266;-39
2023/12/14 06:49:19;;;;;;;5.45;4.70;;;;;;;33.52;58.62;100856.69;4967804;28;70121;-39
2023/12/14 06:51:49;;;;;;;5.00;4.53;;;;;;;33.49;58.31;100854.41;4962396;28;65110;-39
2023/12/14 06:54:19;;;;;;;5.15;4.85;;;;;;;33.55;58.64;100856.22;4948922;28;70402;-39
2023/12/14 06:56:49;;;;;;;5.75;4.63;;;;;;;33.46;58.52;100822.25;4947682;28;65734;-39
2023/12/14 06:59:19;;;;;;;5.07;4.78;;;;;;;33.59;58.48;100835.63;4969116;28;70352;-40
2023/12/14 07:01:50;;;;;;;5.28;4.78;;;;;;;33.60;58.39;100842.75;4955970;28;66679;-40
2023/12/14 07:04:20;;;;;;;5.43;4.90;;;;;;;33.60;58.38;100834.59;4965116;28;70377;-40
2023/12/14 07:06:53;;;;;;;5.07;4.78;;;;;;;33.64;58.56;100830.31;4952887;28;65076;-39
2023/12/14 07:09:24;;;;;;;5.40;5.00;;;;;;;33.67;58.09;100829.81;4965576;28;70501;-42
2023/12/14 07:11:53;;;;;;;4.97;4.68;;;;;;;33.68;58.52;100817.84;4948855;28;66276;-40
2023/12/14 07:14:23;;;;;;;5.28;4.60;;;;;;;33.68;58.24;100819.75;4957059;28;69376;-39
2023/12/14 07:16:54;;;;;;;4.78;4.47;;;;;;;33.71;58.50;100825.56;4968820;28;66478;-40
2023/12/14 07:19:24;;;;;;;4.78;4.38;;;;;;;33.72;58.38;100812.78;4966335;28;69833;-40
2023/12/14 07:21:54;;;;;;;5.07;4.68;;;;;;;33.78;57.94;100815.34;4979716;28;66119;-41
2023/12/14 07:24:24;;;;;;;5.60;5.10;;;;;;;33.80;58.38;100807.78;4947768;28;69157;-40
2023/12/14 07:26:57;;;;;;;4.63;4.22;;;;;;;33.79;58.00;100806.13;4965533;28;65785;-40
2023/12/14 07:29:27;;;;;;;4.70;4.40;;;;;;;33.75;58.16;100783.19;4965329;28;69784;-39
2023/12/14 07:31:57;;;;;;;4.80;4.45;;;;;;;33.87;58.20;100794.03;4950770;28;65233;-39
2023/12/14 07:34:28;;;;;;;4.80;4.40;;;;;;;33.91;57.70;100797.09;4965002;28;69545;-41
2023/12/14 07:36:57;;;;;;;5.57;5.07;;;;;;;33.91;57.90;100789.75;4966139;28;65724;-39
2023/12/14 07:39:27;;;;;;;4.72;4.43;;;;;;;33.94;57.68;100796.63;4962085;28;69456;-39
2023/12/14 07:41:58;;;;;;;8.00;4.70;;;;;;;33.95;57.61;100796.34;4964204;28;66230;-39
2023/12/14 07:44:29;;;;;;;6.78;4.38;;;;;;;33.96;57.81;100781.69;4952400;28;70453;-40
2023/12/14 07:47:00;;;;;;;;;;;;;;;33.83;57.68;100800.22;4966493;28;65904;-39
2023/12/14 07:49:30;;;;;;;4.63;4.32;;;;;;;34.01;57.51;100791.84;4964434;28;70261;-39
2023/12/14 07:52:00;;;;;;;4.13;3.90;;;;;;;34.10;57.82;100795.00;4966603;28;65849;-39
2023/12/14 07:54:30;;;;;;;4.40;4.10;;;;;;;34.14;57.67;100797.00;4960501;28;70371;-40
2023/12/14 07:57:01;;;;;;;4.25;3.90;;;;;;;34.13;57.48;100779.03;4967793;28;65669;-40
2023/12/14 07:59:32;;;;;;;4.13;3.83;;;;;;;34.20;57.21;100779.69;4963001;28;70190;-41
2023/12/14 08:02:02;;;;;;;4.38;4.07;;;;;;;34.18;57.30;100776.38;4966548;28;68359;-39
2023/12/14 08:04:33;;;;;;;4.43;4.03;;;;;;;34.28;57.10;100792.09;4949467;28;69852;-40
2023/12/14 08:07:03;;;;;;;5.15;3.72;;;;;;;34.31;57.20;100793.50;4966524;28;66189;-41
2023/12/14 08:09:33;;;;;;;6.35;4.35;;;;;;;34.32;56.96;100782.34;4938713;28;69180;-39
2023/12/14 08:12:04;;;;;;;5.07;3.63;;;;;;;34.36;56.73;100782.69;4962764;28;66338;-40
2023/12/14 08:14:34;;;;;;;3.97;3.78;;;;;;;34.11;57.08;100744.97;4968744;28;69713;-40
2023/12/14 08:17:05;;;;;;;4.45;4.15;;;;;;;34.47;57.00;100795.41;4969064;28;65723;-39
2023/12/14 08:19:35;;;;;;;4.15;3.83;;;;;;;34.14;56.60;100726.25;4963168;28;69716;-39
2023/12/14 08:22:05;;;;;;;3.72;3.47;;;;;;;34.56;56.84;100796.66;4952273;28;65251;-40
2023/12/14 08:24:35;;;;;;;4.95;4.32;;;;;;;34.57;56.77;100798.31;4954014;28;70136;-39
2023/12/14 08:27:05;;;;;;;3.92;3.63;;;;;;;34.63;56.26;100783.72;4969543;28;66823;-40
2023/12/14 08:29:35;;;;;;;4.28;4.00;;;;;;;34.67;56.36;100784.84;4950921;28;69200;-41
2023/12/14 08:32:06;;;;;;;4.28;3.97;;;;;;;34.62;56.04;100773.88;4965987;28;65490;-41
2023/12/14 08:34:37;;;;;;;7.97;3.20;;;;;;;34.74;56.21;100790.13;4965115;28;69744;-41
2023/12/14 08:37:08;;;;;;;3.63;3.33;;;;;;;34.79;55.89;100786.66;4966772;28;66872;-41
2023/12/14 08:39:39;;;;;;;6.13;3.65;;;;;;;34.83;55.88;100788.66;4937630;28;70040;-41
2023/12/14 08:42:11;;;;;;;3.80;3.37;;;;;;;34.86;55.91;100785.44;4948748;28;65940;-41
2023/12/14 08:44:43;;;;;;;4.88;3.95;;;;;;;34.91;56.04;100780.06;4954190;28;69123;-42
2023/12/14 08:47:14;;;;;;;3.85;3.55;;;;;;;34.96;55.84;100781.19;4939871;28;66158;-40
2023/12/14 08:49:45;;;;;;;3.58;3.30;;;;;;;34.99;55.43;100776.06;4938626;28;70054;-39
2023/12/14 08:52:15;;;;;;;4.18;3.08;;;;;;;35.04;55.66;100778.03;4949961;28;65914;-39
2023/12/14 08:54:46;;;;;;;3.75;3.45;;;;;;;35.06;55.33;100782.19;4967302;28;69900;-39
2023/12/14 08:57:16;;;;;;;3.67;3.20;;;;;;;35.11;55.68;100785.00;4941730;28;66459;-39
2023/12/14 08:59:46;;;;;;;3.67;3.33;;;;;;;35.12;55.25;100775.72;4943216;28;70096;-39
2023/12/14 09:02:16;;;;;;;3.50;3.25;;;;;;;35.14;54.91;100783.66;4960914;28;66424;-39
2023/12/14 09:04:46;;;;;;;3.42;3.13;;;;;;;35.22;55.07;100780.50;4953274;28;69805;-39
2023/12/14 09:07:16;;;;;;;4.47;3.30;;;;;;;35.24;54.91;100789.25;4971117;28;65823;-45
2023/12/14 09:09:47;;;;;;;3.50;3.25;;;;;;;34.91;54.89;100787.41;4923122;28;70201;-40
2023/12/14 09:12:17;;;;;;;3.78;2.95;;;;;;;34.60;54.37;100784.22;4950785;28;65681;-38
2023/12/14 09:14:47;;;;;;;5.82;3.00;;;;;;;34.53;56.17;100797.13;4941184;28;70735;-39
2023/12/14 09:17:18;;;;;;;3.30;2.90;;;;;;;34.38;55.55;100785.97;4970979;28;66184;-40
2023/12/14 09:19:48;;;;;;;3.53;3.22;;;;;;;34.39;56.03;100788.47;4957733;28;69841;-39
2023/12/14 09:22:19;;;;;;;3.42;3.10;;;;;;;34.36;56.49;100794.41;4974045;28;66408;-39
2023/12/14 09:24:50;;;;;;;11.88;4.20;;;;;;;34.33;56.58;100792.19;4968659;28;70122;-41
2023/12/14 09:27:21;;;;;;;6.35;3.58;;;;;;;34.14;56.62;100758.91;4946032;28;66663;-39
2023/12/14 09:29:51;;;;;;;11.27;4.32;;;;;;;34.28;56.98;100788.53;4951497;28;69864;-40
2023/12/14 09:32:21;;;;;;;5.55;5.05;;;;;;;34.32;57.22;100797.84;4973028;28;66680;-39
2023/12/14 09:34:52;;;;;;;5.05;4.55;;;;;;;34.23;57.63;100802.88;4953868;28;70548;-39
2023/12/14 09:37:22;;;;;;;8.40;5.82;;;;;;;34.30;57.74;100806.28;4967447;28;66559;-39
2023/12/14 09:39:52;;;;;;;7.10;5.60;;;;;;;34.24;58.02;100809.97;4971056;28;70159;-38
2023/12/14 09:42:22;;;;;;;9.50;5.55;;;;;;;34.29;57.88;100814.69;4973817;28;65589;-38
2023/12/14 09:44:53;;;;;;;10.27;5.65;;;;;;;34.22;57.42;100804.78;4973683;28;69894;-39
2023/12/14 09:47:23;;;;;;;5.95;5.28;;;;;;;34.23;57.47;100817.31;4964717;28;66593;-39
2023/12/14 09:49:53;;;;;;;4.65;4.25;;;;;;;34.28;57.27;100821.22;4970255;28;70639;-40
2023/12/14 09:52:23;;;;;;;9.32;4.57;;;;;;;34.26;57.36;100827.72;4972991;28;66274;-39
2023/12/14 09:54:53;;;;;;;7.13;4.47;;;;;;;34.26;57.37;100825.00;4943442;28;69846;-39
2023/12/14 09:57:25;;;;;;;6.30;4.53;;;;;;;34.19;57.06;100828.97;4959363;28;65716;-38
2023/12/14 09:59:56;;;;;;;7.47;4.83;;;;;;;34.19;56.87;100827.06;4968584;28;70299;-38
2023/12/14 10:02:27;;;;;;;9.77;4.88;;;;;;;34.21;56.70;100821.34;4953708;28;65582;-39
2023/12/14 10:04:57;;;;;;;4.65;4.25;;;;;;;34.14;57.01;100823.41;4972042;28;69800;-39
2023/12/14 10:07:27;;;;;;;5.25;4.68;;;;;;;34.04;57.18;100796.78;4932119;28;66737;-38
2023/12/14 10:10:14;;;;;;;5.00;4.22;;;;;;;33.68;56.60;100771.63;4972975;28;69664;-39
2023/12/14 10:12:54;;;;;;;4.68;3.90;;;;;;;34.13;56.60;100838.94;4941387;28;65926;-38
2023/12/14 10:15:27;;;;;;;8.65;4.15;;;;;;;33.83;56.68;100778.44;4959021;28;69862;-39
2023/12/14 10:17:58;;;;;;;9.13;4.32;;;;;;;34.15;56.80;100828.59;4966079;28;66610;-38
2023/12/14 10:20:28;;;;;;;4.57;4.18;;;;;;;34.04;56.90;100810.41;4945342;28;69877;-39
2023/12/14 10:22:58;;;;;;;6.40;4.63;;;;;;;34.16;56.91;100826.72;4967055;28;66510;-41
2023/12/14 10:25:28;;;;;;;4.88;3.58;;;;;;;34.11;56.55;100838.34;4973899;28;69657;-39
2023/12/14 10:28:00;;;;;;;6.82;4.45;;;;;;;34.14;56.73;100828.84;4947357;28;66492;-38
2023/12/14 10:30:30;;;;;;;9.30;4.07;;;;;;;33.98;56.96;100830.44;4971663;28;68321;-38
2023/12/14 10:33:04;;;;;;;4.75;3.90;;;;;;;34.08;56.74;100852.44;4957757;28;66617;-39
2023/12/14 10:35:35;;;;;;;5.97;4.40;;;;;;;33.70;56.74;100804.84;4970379;28;70842;-40
2023/12/14 10:38:08;;;;;;;7.53;4.43;;;;;;;34.03;56.72;100844.13;4936650;28;66771;-39
2023/12/14 10:40:43;;;;;;;8.25;4.10;;;;;;;34.02;56.22;100858.81;4939693;28;70225;-39
2023/12/14 10:43:15;;;;;;;5.65;4.35;;;;;;;34.02;56.44;100870.53;4971470;28;65619;-39
2023/12/14 10:46:07;;;;;;;4.45;4.05;;;;;;;33.93;56.97;100849.38;4972239;28;69898;-39
2023/12/14 10:48:41;;;;;;;;;;;;;;;33.75;57.12;100864.81;4955987;28;65781;-40
2023/12/14 10:51:17;;;;;;;5.18;4.20;;;;;;;33.60;56.51;100812.81;4971174;28;70744;-39
2023/12/14 10:53:49;;;;;;;4.97;4.22;;;;;;;33.95;56.48;100878.00;4964116;28;66811;-38
2023/12/14 10:56:19;;;;;;;8.27;4.63;;;;;;;33.96;57.01;100876.09;4958374;28;69057;-39
2023/12/14 10:58:56;;;;;;;6.68;4.20;;;;;;;33.93;56.74;100876.59;4961910;28;65141;-38
2023/12/14 11:01:27;;;;;;;4.55;4.15;;;;;;;33.93;57.36;100882.84;4943053;28;69268;-39
2023/12/14 11:03:59;;;;;;;5.13;4.67;;;;;;;33.91;57.31;100878.75;4972972;28;65192;-39
2023/12/14 11:06:36;;;;;;;5.72;4.53;;;;;;;33.86;57.18;100890.34;4970791;28;70659;-39
2023/12/14 11:09:08;;;;;;;5.10;4.80;;;;;;;33.93;57.15;100898.34;4968930;28;65723;-39
2023/12/14 11:11:58;;;;;;;6.88;4.90;;;;;;;33.79;57.82;100909.53;4962500;28;70509;-38
2023/12/14 11:14:29;;;;;;;5.55;5.15;;;;;;;33.71;57.65;100873.69;4969277;28;66302;-37
2023/12/14 11:17:06;;;;;;;6.97;5.53;;;;;;;33.36;57.54;100829.13;4968281;28;69640;-38
2023/12/14 11:19:36;;;;;;;5.20;4.78;;;;;;;34.08;57.02;100896.00;4970159;28;65455;-39
2023/12/14 11:22:12;;;;;;;6.57;5.20;;;;;;;34.29;56.50;100907.25;4973320;28;43346;-40
2023/12/14 11:24:43;;;;;;;5.00;4.57;;;;;;;34.40;56.10;100914.56;4964728;28;65897;-39
2023/12/14 11:27:14;;;;;;;4.95;4.55;;;;;;;34.45;56.21;100917.38;4948362;28;69761;-39
2023/12/14 11:29:44;;;;;;;5.13;4.72;;;;;;;34.50;55.71;100914.75;4951517;28;66681;-38
2023/12/14 11:32:14;;;;;;;6.63;5.28;;;;;;;34.49;55.32;100902.19;4947077;28;69247;-39
2023/12/14 11:34:47;;;;;;;5.30;4.82;;;;;;;34.16;55.51;100854.78;4967084;28;66603;-39